createdAt,value
2022-09-26T00:00:36.468Z,101050.00
2022-09-26T00:03:02.910Z,101040.00
2022-09-26T00:05:32.818Z,101036.00
2022-09-26T00:07:59.730Z,101035.00
2022-09-26T00:10:26.294Z,101028.00
2022-09-26T00:12:53.364Z,101014.00
2022-09-26T00:15:19.803Z,101014.00
2022-09-26T00:17:46.273Z,101008.00
2022-09-26T00:20:12.751Z,100995.00
2022-09-26T00:22:39.181Z,100992.00
2022-09-26T00:25:05.839Z,100988.00
2022-09-26T00:27:32.426Z,100975.00
2022-09-26T00:29:58.899Z,100969.00
2022-09-26T00:32:25.417Z,100967.00
2022-09-26T00:34:51.878Z,100962.00
2022-09-26T00:37:18.368Z,100957.00
2022-09-26T00:39:44.860Z,100955.00
2022-09-26T00:42:14.861Z,100945.00
2022-09-26T00:44:49.190Z,100941.00
2022-09-26T00:47:27.849Z,100936.00
2022-09-26T00:49:59.539Z,100939.00
2022-09-26T00:52:37.708Z,100931.00
2022-09-26T00:55:06.274Z,100930.00
2022-09-26T00:57:38.655Z,100922.00
2022-09-26T01:00:07.535Z,100912.00
2022-09-26T01:02:34.324Z,100900.00
2022-09-26T01:05:01.454Z,100886.00
2022-09-26T01:07:28.445Z,100882.00
2022-09-26T01:09:55.457Z,100888.00
2022-09-26T01:12:22.213Z,100881.00
2022-09-26T01:14:50.691Z,100875.00
2022-09-26T01:17:17.238Z,100868.00
2022-09-26T01:20:02.407Z,100862.00
2022-09-26T01:22:44.208Z,100863.00
2022-09-26T01:25:13.663Z,100864.00
2022-09-26T01:27:58.810Z,100856.00
2022-09-26T01:30:26.718Z,100851.00
2022-09-26T01:32:57.239Z,100843.00
2022-09-26T01:35:42.391Z,100839.00
2022-09-26T01:38:14.899Z,100834.00
2022-09-26T01:40:52.376Z,100826.00
2022-09-26T01:43:21.839Z,100824.00
2022-09-26T01:45:48.302Z,100804.00
2022-09-26T01:48:19.387Z,100797.00
2022-09-26T01:50:55.512Z,100792.00
2022-09-26T01:53:25.272Z,100788.00
2022-09-26T01:55:54.567Z,100784.00
2022-09-26T01:58:24.506Z,100778.00
2022-09-26T02:00:51.585Z,100770.00
2022-09-26T02:03:27.409Z,100762.00
2022-09-26T02:05:57.016Z,100760.00
2022-09-26T02:08:27.900Z,100747.00
2022-09-26T02:11:04.121Z,100745.00
2022-09-26T02:13:33.643Z,100747.00
2022-09-26T02:16:08.720Z,100743.00
2022-09-26T02:18:38.374Z,100737.00
2022-09-26T02:21:23.942Z,100731.00
2022-09-26T02:23:51.715Z,100731.00
2022-09-26T02:26:18.523Z,100717.00
2022-09-26T02:28:45.326Z,100712.00
2022-09-26T02:31:12.755Z,100705.00
2022-09-26T02:33:39.279Z,100697.00
2022-09-26T02:36:08.419Z,100698.00
2022-09-26T02:38:34.899Z,100686.00
2022-09-26T02:41:07.619Z,100698.00
2022-09-26T02:43:36.992Z,100693.00
2022-09-26T02:46:23.691Z,100686.00
2022-09-26T02:48:50.126Z,100692.00
2022-09-26T02:51:16.528Z,100678.00
2022-09-26T02:53:43.032Z,100681.00
2022-09-26T02:56:28.064Z,100671.00
2022-09-26T02:59:13.346Z,100671.00
2022-09-26T03:01:43.958Z,100664.00
2022-09-26T03:04:29.259Z,100644.00
2022-09-26T03:06:58.428Z,100648.00
2022-09-26T03:09:25.697Z,100644.00
2022-09-26T03:11:52.765Z,100638.00
2022-09-26T03:14:21.232Z,100634.00
2022-09-26T03:16:48.448Z,100618.00
2022-09-26T03:19:27.926Z,100614.00
2022-09-26T03:21:54.893Z,100609.00
2022-09-26T03:24:22.977Z,100600.00
2022-09-26T03:26:50.619Z,100595.00
2022-09-26T03:29:18.021Z,100592.00
2022-09-26T03:31:45.209Z,100567.00
2022-09-26T03:34:11.777Z,100562.00
2022-09-26T03:36:39.785Z,100559.00
2022-09-26T03:39:06.362Z,100538.00
2022-09-26T03:41:33.099Z,100546.00
2022-09-26T03:43:59.835Z,100548.00
2022-09-26T03:46:26.303Z,100549.00
2022-09-26T03:48:52.753Z,100540.00
2022-09-26T03:51:21.101Z,100537.00
2022-09-26T03:53:47.641Z,100528.00
2022-09-26T03:56:15.667Z,100528.00
2022-09-26T03:58:42.713Z,100519.00
2022-09-26T04:01:10.447Z,100509.00
2022-09-26T04:03:37.939Z,100500.00
2022-09-26T04:06:05.468Z,100495.00
2022-09-26T04:08:31.914Z,100493.00
2022-09-26T04:11:05.707Z,100481.00
2022-09-26T04:14:01.466Z,100464.00
2022-09-26T04:16:20.367Z,100456.00
2022-09-26T04:18:47.119Z,100451.00
2022-09-26T04:21:16.995Z,100450.00
2022-09-26T04:23:44.063Z,100444.00
2022-09-26T04:26:12.586Z,100433.00
2022-09-26T04:28:39.863Z,100430.00
2022-09-26T04:31:07.104Z,100426.00
2022-09-26T04:33:33.946Z,100429.00
2022-09-26T04:36:05.162Z,100417.00
2022-09-26T04:38:34.576Z,100414.00
2022-09-26T04:41:08.738Z,100414.00
2022-09-26T04:43:35.820Z,100405.00
2022-09-26T04:46:06.134Z,100395.00
2022-09-26T04:48:32.817Z,100391.00
2022-09-26T04:50:59.335Z,100388.00
2022-09-26T04:53:25.774Z,100379.00
2022-09-26T04:55:54.415Z,100375.00
2022-09-26T04:58:21.265Z,100369.00
2022-09-26T05:00:49.709Z,100367.00
2022-09-26T05:03:17.193Z,100354.00
2022-09-26T05:05:47.606Z,100349.00
2022-09-26T05:08:14.665Z,100350.00
2022-09-26T05:10:41.793Z,100335.00
2022-09-26T05:13:08.272Z,100337.00
2022-09-26T05:15:39.873Z,100317.00
2022-09-26T05:18:07.830Z,100318.00
2022-09-26T05:20:35.189Z,100312.00
2022-09-26T05:23:02.091Z,100305.00
2022-09-26T05:25:48.194Z,100290.00
2022-09-26T05:28:14.916Z,100290.00
2022-09-26T05:30:41.661Z,100285.00
2022-09-26T05:33:08.363Z,100288.00
2022-09-26T05:35:35.343Z,100277.00
2022-09-26T05:38:02.629Z,100280.00
2022-09-26T05:40:47.832Z,100282.00
2022-09-26T05:43:14.281Z,100280.00
2022-09-26T05:45:42.231Z,100263.00
2022-09-26T05:48:08.844Z,100265.00
2022-09-26T05:50:42.901Z,100260.00
2022-09-26T05:53:10.257Z,100254.00
2022-09-26T05:55:39.821Z,100244.00
2022-09-26T05:58:06.751Z,100248.00
2022-09-26T06:00:35.894Z,100235.00
2022-09-26T06:03:05.302Z,100230.00
2022-09-26T06:05:34.868Z,100229.00
2022-09-26T06:08:04.184Z,100219.00
2022-09-26T06:10:30.954Z,100233.00
2022-09-26T06:13:00.150Z,100220.00
2022-09-26T06:15:26.696Z,100216.00
2022-09-26T06:18:00.576Z,100203.00
2022-09-26T06:20:27.165Z,100198.00
2022-09-26T06:22:55.362Z,100170.00
2022-09-26T06:25:22.108Z,100172.00
2022-09-26T06:27:48.948Z,100175.00
2022-09-26T06:30:16.374Z,100169.00
2022-09-26T06:32:43.124Z,100166.00
2022-09-26T06:35:09.591Z,100155.00
2022-09-26T06:37:36.078Z,100143.00
2022-09-26T06:40:03.753Z,100134.00
2022-09-26T06:42:36.823Z,100117.00
2022-09-26T06:45:05.122Z,100106.00
2022-09-26T06:47:31.538Z,100114.00
2022-09-26T06:49:58.040Z,100103.00
2022-09-26T06:52:24.492Z,100092.00
2022-09-26T06:54:50.987Z,100092.00
2022-09-26T06:57:17.900Z,100095.00
2022-09-26T06:59:44.505Z,100097.00
2022-09-26T07:02:11.054Z,100096.00
2022-09-26T07:04:37.802Z,100094.00
2022-09-26T07:07:04.528Z,100091.00
2022-09-26T07:09:31.380Z,100087.00
2022-09-26T07:12:15.066Z,100077.00
2022-09-26T07:14:42.484Z,100075.00
2022-09-26T07:17:13.941Z,100068.00
2022-09-26T07:19:40.366Z,100059.00
2022-09-26T07:22:07.480Z,100057.00
2022-09-26T07:24:34.994Z,100046.00
2022-09-26T07:27:02.179Z,100052.00
2022-09-26T07:29:28.981Z,100052.00
2022-09-26T07:31:55.819Z,100044.00
2022-09-26T07:34:26.054Z,100039.00
2022-09-26T07:36:53.007Z,100039.00
2022-09-26T07:39:19.596Z,100030.00
2022-09-26T07:41:46.866Z,100024.00
2022-09-26T07:47:18.894Z,100028.00
2022-09-26T07:50:03.693Z,100022.00
2022-09-26T07:52:30.781Z,100012.00
2022-09-26T07:54:57.203Z,100011.00
2022-09-26T07:57:23.661Z,100013.00
2022-09-26T07:59:50.563Z,99999.00
2022-09-26T08:02:24.659Z,99999.00
2022-09-26T08:04:51.405Z,99996.00
2022-09-26T08:07:17.950Z,99980.00
2022-09-26T08:09:44.377Z,99984.00
2022-09-26T08:12:11.040Z,99984.00
2022-09-26T08:14:37.756Z,99977.00
2022-09-26T08:17:04.222Z,99976.00
2022-09-26T08:19:30.741Z,99975.00
2022-09-26T08:21:59.097Z,99984.00
2022-09-26T08:24:25.530Z,99969.00
2022-09-26T08:26:53.985Z,99957.00
2022-09-26T08:29:21.818Z,99968.00
2022-09-26T08:31:48.365Z,99968.00
2022-09-26T08:34:14.970Z,99955.00
2022-09-26T08:36:41.823Z,99957.00
2022-09-26T08:39:09.439Z,99942.00
2022-09-26T08:41:35.861Z,99944.00
2022-09-26T08:44:25.076Z,99938.00
2022-09-26T08:47:06.592Z,99953.00
2022-09-26T08:49:52.736Z,99951.00
2022-09-26T08:52:22.092Z,99953.00
2022-09-26T08:54:49.329Z,99954.00
2022-09-26T08:57:26.618Z,99951.00
2022-09-26T08:59:53.958Z,99952.00
2022-09-26T09:02:26.236Z,99943.00
2022-09-26T09:04:57.543Z,99937.00
2022-09-26T09:07:25.173Z,99941.00
2022-09-26T09:09:53.883Z,99940.00
2022-09-26T09:12:33.477Z,99935.00
2022-09-26T09:15:25.069Z,99922.00
2022-09-26T09:18:02.177Z,99936.00
2022-09-26T09:20:28.618Z,99931.00
2022-09-26T09:23:07.100Z,99932.00
2022-09-26T09:28:58.037Z,99923.00
2022-09-26T09:31:26.437Z,99917.00
2022-09-26T09:33:57.400Z,99925.00
2022-09-26T09:36:26.525Z,99914.00
2022-09-26T09:38:53.412Z,99921.00
2022-09-26T09:41:22.869Z,99926.00
2022-09-26T09:43:51.785Z,99923.00
2022-09-26T09:46:23.733Z,99935.00
2022-09-26T09:48:56.221Z,99929.00
2022-09-26T09:51:26.669Z,99927.00
2022-09-26T09:54:08.256Z,99914.00
2022-09-26T09:56:53.519Z,99922.00
2022-09-26T09:59:19.931Z,99912.00
2022-09-26T10:01:48.698Z,99913.00
2022-09-26T10:04:33.962Z,99911.00
2022-09-26T10:07:01.934Z,99899.00
2022-09-26T10:09:38.844Z,99893.00
2022-09-26T10:12:14.721Z,99901.00
2022-09-26T10:14:44.686Z,99906.00
2022-09-26T10:17:11.153Z,99905.00
2022-09-26T10:19:39.080Z,99903.00
2022-09-26T10:22:09.450Z,99896.00
2022-09-26T10:24:43.526Z,99905.00
2022-09-26T10:27:19.061Z,99909.00
2022-09-26T10:29:47.241Z,99899.00
2022-09-26T10:32:14.248Z,99899.00
2022-09-26T10:34:40.688Z,99904.00
2022-09-26T10:37:29.085Z,99893.00
2022-09-26T10:40:15.886Z,99890.00
2022-09-26T10:42:46.669Z,99887.00
2022-09-26T10:45:18.049Z,99890.00
2022-09-26T10:47:46.244Z,99891.00
2022-09-26T10:50:12.846Z,99884.00
2022-09-26T10:52:43.485Z,99882.00
2022-09-26T10:55:15.169Z,99877.00
2022-09-26T10:58:02.257Z,99884.00
2022-09-26T11:00:40.185Z,99886.00
2022-09-26T11:03:08.503Z,99885.00
2022-09-26T11:05:54.577Z,99880.00
2022-09-26T11:08:21.907Z,99875.00
2022-09-26T11:10:48.946Z,99872.00
2022-09-26T11:13:17.351Z,99876.00
2022-09-26T11:15:53.422Z,99876.00
2022-09-26T11:18:22.355Z,99877.00
2022-09-26T11:20:51.281Z,99886.00
2022-09-26T11:23:22.955Z,99882.00
2022-09-26T11:25:57.789Z,99876.00
2022-09-26T11:28:31.018Z,99869.00
2022-09-26T11:31:01.706Z,99879.00
2022-09-26T11:33:28.537Z,99876.00
2022-09-26T11:36:04.620Z,99860.00
2022-09-26T11:38:39.226Z,99855.00
2022-09-26T11:41:36.756Z,99864.00
2022-09-26T11:44:17.381Z,99858.00
2022-09-26T11:46:59.076Z,99858.00
2022-09-26T11:49:34.673Z,99840.00
2022-09-26T11:52:07.319Z,99830.00
2022-09-26T11:54:46.187Z,99833.00
2022-09-26T11:57:28.033Z,99832.00
2022-09-26T12:00:06.173Z,99836.00
2022-09-26T12:02:33.333Z,99853.00
2022-09-26T12:04:59.783Z,99853.00
2022-09-26T12:07:53.071Z,99845.00
2022-09-26T12:10:37.212Z,99852.00
2022-09-26T12:13:11.126Z,99858.00
2022-09-26T12:15:37.815Z,99853.00
2022-09-26T12:18:22.535Z,99850.00
2022-09-26T12:21:01.086Z,99851.00
2022-09-26T12:23:42.292Z,99847.00
2022-09-26T12:26:27.241Z,99853.00
2022-09-26T12:29:03.161Z,99852.00
2022-09-26T12:31:31.831Z,99850.00
2022-09-26T12:34:07.385Z,99849.00
2022-09-26T12:36:48.090Z,99853.00
2022-09-26T12:39:29.872Z,99852.00
2022-09-26T12:42:15.026Z,99848.00
2022-09-26T12:44:41.460Z,99847.00
2022-09-26T12:47:14.008Z,99838.00
2022-09-26T12:49:59.412Z,99832.00
2022-09-26T12:52:44.521Z,99826.00
2022-09-26T12:55:14.191Z,99824.00
2022-09-26T12:57:40.575Z,99829.00
2022-09-26T13:00:17.232Z,99826.00
2022-09-26T13:02:55.987Z,99829.00
2022-09-26T13:05:27.828Z,99817.00
2022-09-26T13:08:02.211Z,99818.00
2022-09-26T13:10:34.867Z,99826.00
2022-09-26T13:13:02.613Z,99833.00
2022-09-26T13:15:43.919Z,99824.00
2022-09-26T13:18:13.382Z,99833.00
2022-09-26T13:20:43.372Z,99829.00
2022-09-26T13:23:15.866Z,99831.00
2022-09-26T13:25:50.059Z,99826.00
2022-09-26T13:28:19.860Z,99827.00
2022-09-26T13:30:48.388Z,99821.00
2022-09-26T13:33:20.791Z,99813.00
2022-09-26T13:35:51.191Z,99817.00
2022-09-26T13:38:33.876Z,99828.00
2022-09-26T13:41:18.956Z,99825.00
2022-09-26T13:44:09.407Z,99818.00
2022-09-26T13:46:36.336Z,99821.00
2022-09-26T13:49:22.511Z,99825.00
2022-09-26T13:51:54.615Z,99824.00
2022-09-26T13:54:29.578Z,99821.00
2022-09-26T13:56:56.203Z,99818.00
2022-09-26T13:59:27.464Z,99819.00
2022-09-26T14:02:16.880Z,99826.00
2022-09-26T14:04:44.412Z,99829.00
2022-09-26T14:07:29.521Z,99822.00
2022-09-26T14:10:06.799Z,99828.00
2022-09-26T14:12:50.583Z,99823.00
2022-09-26T14:15:17.059Z,99818.00
2022-09-26T14:17:43.638Z,99817.00
2022-09-26T14:20:39.757Z,99824.00
2022-09-26T14:23:26.178Z,99830.00
2022-09-26T14:25:56.559Z,99824.00
2022-09-26T14:28:33.869Z,99834.00
2022-09-26T14:31:19.542Z,99833.00
2022-09-26T14:33:46.503Z,99836.00
2022-09-26T14:36:33.480Z,99832.00
2022-09-26T14:39:00.139Z,99829.00
2022-09-26T14:41:28.509Z,99844.00
2022-09-26T14:43:59.023Z,99842.00
2022-09-26T14:46:25.901Z,99853.00
2022-09-26T14:49:02.238Z,99860.00
2022-09-26T14:51:37.216Z,99869.00
2022-09-26T14:54:08.248Z,99860.00
2022-09-26T14:56:41.300Z,99860.00
2022-09-26T14:59:18.492Z,99848.00
2022-09-26T15:01:45.437Z,99846.00
2022-09-26T15:04:11.924Z,99850.00
2022-09-26T15:06:48.905Z,99845.00
2022-09-26T15:09:21.665Z,99838.00
2022-09-26T15:11:51.573Z,99838.00
2022-09-26T15:14:24.928Z,99842.00
2022-09-26T15:16:53.334Z,99839.00
2022-09-26T15:19:28.491Z,99846.00
2022-09-26T15:21:59.900Z,99850.00
2022-09-26T15:24:29.028Z,99848.00
2022-09-26T15:26:57.227Z,99849.00
2022-09-26T15:29:25.248Z,99849.00
2022-09-26T15:31:53.168Z,99855.00
2022-09-26T15:34:34.761Z,99855.00
2022-09-26T15:37:09.278Z,99856.00
2022-09-26T15:39:37.208Z,99846.00
2022-09-26T15:42:28.711Z,99848.00
2022-09-26T15:44:58.658Z,99852.00
2022-09-26T15:47:26.789Z,99848.00
2022-09-26T15:50:05.240Z,99851.00
2022-09-26T15:52:35.383Z,99847.00
2022-09-26T15:55:04.062Z,99857.00
2022-09-26T15:57:31.087Z,99861.00
2022-09-26T15:59:59.415Z,99856.00
2022-09-26T16:02:30.011Z,99848.00
2022-09-26T16:04:56.646Z,99858.00
2022-09-26T16:07:24.976Z,99859.00
2022-09-26T16:09:51.943Z,99856.00
2022-09-26T16:12:19.314Z,99854.00
2022-09-26T16:14:47.512Z,99861.00
2022-09-26T16:17:20.328Z,99867.00
2022-09-26T16:20:02.947Z,99859.00
2022-09-26T16:22:36.740Z,99864.00
2022-09-26T16:25:23.965Z,99869.00
2022-09-26T16:27:52.367Z,99867.00
2022-09-26T16:30:27.967Z,99867.00
2022-09-26T16:33:03.444Z,99876.00
2022-09-26T16:35:31.306Z,99862.00
2022-09-26T16:37:59.493Z,99867.00
2022-09-26T16:40:30.091Z,99865.00
2022-09-26T16:43:19.105Z,99871.00
2022-09-26T16:45:49.494Z,99865.00
2022-09-26T16:48:35.280Z,99870.00
2022-09-26T16:51:32.804Z,99877.00
2022-09-26T16:54:16.098Z,99872.00
2022-09-26T16:56:43.154Z,99877.00
2022-09-26T16:59:14.951Z,99877.00
2022-09-26T17:01:53.661Z,99883.00
2022-09-26T17:04:22.730Z,99887.00
2022-09-26T17:06:49.194Z,99888.00
2022-09-26T17:09:20.027Z,99882.00
2022-09-26T17:11:47.887Z,99882.00
2022-09-26T17:14:16.569Z,99877.00
2022-09-26T17:16:44.267Z,99877.00
2022-09-26T17:19:14.170Z,99878.00
2022-09-26T17:21:40.624Z,99878.00
2022-09-26T17:24:14.483Z,99880.00
2022-09-26T17:26:44.907Z,99874.00
2022-09-26T17:29:18.049Z,99877.00
2022-09-26T17:31:44.634Z,99877.00
2022-09-26T17:34:14.069Z,99887.00
2022-09-26T17:36:43.753Z,99889.00
2022-09-26T17:39:12.857Z,99886.00
2022-09-26T17:41:39.357Z,99881.00
2022-09-26T17:44:05.837Z,99888.00
2022-09-26T17:46:32.614Z,99897.00
2022-09-26T17:48:59.528Z,99904.00
2022-09-26T17:51:26.005Z,99897.00
2022-09-26T17:53:52.664Z,99901.00
2022-09-26T17:56:19.612Z,99912.00
2022-09-26T17:58:47.042Z,99912.00
2022-09-26T18:01:22.712Z,99928.00
2022-09-26T18:03:50.093Z,99922.00
2022-09-26T18:06:17.636Z,99924.00
2022-09-26T18:08:45.434Z,99926.00
2022-09-26T18:11:16.049Z,99933.00
2022-09-26T18:13:47.749Z,99934.00
2022-09-26T18:16:14.876Z,99930.00
2022-09-26T18:18:41.429Z,99940.00
2022-09-26T18:21:12.354Z,99942.00
2022-09-26T18:23:45.112Z,99945.00
2022-09-26T18:26:20.797Z,99940.00
2022-09-26T18:28:47.323Z,99949.00
2022-09-26T18:31:13.840Z,99944.00
2022-09-26T18:33:40.323Z,99947.00
2022-09-26T18:36:09.375Z,99955.00
2022-09-26T18:38:35.850Z,99960.00
2022-09-26T18:41:02.415Z,99966.00
2022-09-26T18:43:38.968Z,99979.00
2022-09-26T18:46:09.081Z,99976.00
2022-09-26T18:48:37.428Z,99969.00
2022-09-26T18:51:03.907Z,99976.00
2022-09-26T18:53:37.037Z,99962.00
2022-09-26T18:56:23.250Z,99968.00
2022-09-26T18:58:49.747Z,99971.00
2022-09-26T19:01:23.834Z,99973.00
2022-09-26T19:03:50.435Z,99976.00
2022-09-26T19:06:22.738Z,99979.00
2022-09-26T19:08:57.398Z,99970.00
2022-09-26T19:11:24.983Z,99983.00
2022-09-26T19:13:52.691Z,99974.00
2022-09-26T19:16:19.573Z,99982.00
2022-09-26T19:18:46.230Z,99975.00
2022-09-26T19:21:18.995Z,99987.00
2022-09-26T19:23:45.909Z,99979.00
2022-09-26T19:26:25.190Z,99992.00
2022-09-26T19:28:51.796Z,99991.00
2022-09-26T19:31:18.342Z,99994.00
2022-09-26T19:33:46.489Z,99989.00
2022-09-26T19:36:14.731Z,99990.00
2022-09-26T19:38:41.337Z,99987.00
2022-09-26T19:41:07.863Z,99996.00
2022-09-26T19:43:35.086Z,99987.00
2022-09-26T19:46:02.742Z,99996.00
2022-09-26T19:48:29.336Z,99997.00
2022-09-26T19:50:56.053Z,100003.00
2022-09-26T19:53:23.920Z,100002.00
2022-09-26T19:55:50.782Z,100007.00
2022-09-26T19:58:17.230Z,100000.00
2022-09-26T20:00:44.896Z,100005.00
2022-09-26T20:03:16.079Z,100014.00
2022-09-26T20:05:42.573Z,100004.00
2022-09-26T20:08:12.883Z,99998.00
2022-09-26T20:10:39.325Z,100013.00
2022-09-26T20:13:05.824Z,100012.00
2022-09-26T20:15:32.280Z,100017.00
2022-09-26T20:18:00.339Z,100017.00
2022-09-26T20:20:27.547Z,100012.00
2022-09-26T20:22:55.434Z,100009.00
2022-09-26T20:25:26.844Z,100019.00
2022-09-26T20:27:53.730Z,100015.00
2022-09-26T20:30:39.136Z,100008.00
2022-09-26T20:33:06.200Z,100012.00
2022-09-26T20:35:35.673Z,100015.00
2022-09-26T20:38:35.062Z,100013.00
2022-09-26T20:41:01.638Z,100012.00
2022-09-26T20:43:32.078Z,100019.00
2022-09-26T20:45:58.580Z,100018.00
2022-09-26T20:48:26.776Z,100028.00
2022-09-26T20:50:53.359Z,100009.00
2022-09-26T20:53:26.750Z,100016.00
2022-09-26T20:55:55.104Z,100013.00
2022-09-26T20:58:21.876Z,100006.00
2022-09-26T21:00:48.519Z,100014.00
2022-09-26T21:03:17.297Z,100014.00
2022-09-26T21:05:44.341Z,100013.00
2022-09-26T21:08:25.220Z,100017.00
2022-09-26T21:10:51.890Z,100019.00
2022-09-26T21:13:18.369Z,100011.00
2022-09-26T21:15:44.884Z,100020.00
2022-09-26T21:18:21.388Z,100026.00
2022-09-26T21:20:48.025Z,100017.00
2022-09-26T21:23:15.156Z,100024.00
2022-09-26T21:25:41.617Z,100014.00
2022-09-26T21:28:27.654Z,100017.00
2022-09-26T21:30:59.276Z,100013.00
2022-09-26T21:33:26.196Z,100016.00
2022-09-26T21:35:52.820Z,100014.00
2022-09-26T21:38:20.413Z,100017.00
2022-09-26T21:40:48.916Z,100015.00
2022-09-26T21:43:17.060Z,100010.00
2022-09-26T21:45:44.665Z,100011.00
2022-09-26T21:48:12.225Z,100011.00
2022-09-26T21:50:39.878Z,100011.00
2022-09-26T21:53:10.577Z,100020.00
2022-09-26T21:55:38.740Z,100013.00
2022-09-26T21:58:10.461Z,100015.00
2022-09-26T22:00:36.906Z,100013.00
2022-09-26T22:03:06.892Z,100006.00
2022-09-26T22:05:33.360Z,100010.00
2022-09-26T22:08:02.418Z,100012.00
2022-09-26T22:10:29.449Z,100002.00
2022-09-26T22:12:56.324Z,100017.00
2022-09-26T22:15:22.827Z,100013.00
2022-09-26T22:17:49.614Z,100011.00
2022-09-26T22:20:16.156Z,100010.00
2022-09-26T22:22:42.592Z,100008.00
2022-09-26T22:25:09.264Z,100012.00
2022-09-26T22:27:36.268Z,100013.00
2022-09-26T22:30:03.297Z,100023.00
2022-09-26T22:32:29.763Z,100021.00
2022-09-26T22:34:56.238Z,100010.00
2022-09-26T22:37:25.565Z,100005.00
2022-09-26T22:39:52.094Z,100010.00
2022-09-26T22:42:18.564Z,100004.00
2022-09-26T22:44:45.018Z,100014.00
2022-09-26T22:47:11.490Z,100015.00
2022-09-26T22:49:38.026Z,100010.00
2022-09-26T22:52:04.537Z,100017.00
2022-09-26T22:54:31.026Z,100013.00
2022-09-26T22:56:59.816Z,100013.00
2022-09-26T22:59:26.344Z,100007.00
2022-09-26T23:01:52.964Z,100010.00
2022-09-26T23:04:19.440Z,99999.00
2022-09-26T23:06:45.887Z,99996.00
2022-09-26T23:09:12.450Z,99995.00
2022-09-26T23:11:38.902Z,100003.00
2022-09-26T23:14:05.332Z,100006.00
2022-09-26T23:16:31.899Z,100001.00
2022-09-26T23:18:58.410Z,100002.00
2022-09-26T23:21:26.222Z,100001.00
2022-09-26T23:23:54.932Z,100000.00
2022-09-26T23:26:22.161Z,99998.00
2022-09-26T23:28:52.561Z,99991.00
2022-09-26T23:31:19.715Z,99997.00
2022-09-26T23:33:46.206Z,99995.00
2022-09-26T23:36:13.192Z,99995.00
2022-09-26T23:38:41.636Z,99995.00
2022-09-26T23:41:09.118Z,99991.00
2022-09-26T23:43:35.948Z,99995.00
2022-09-26T23:46:02.635Z,99988.00
2022-09-26T23:48:29.292Z,99985.00
2022-09-26T23:50:56.476Z,99995.00
2022-09-26T23:53:23.026Z,99998.00
2022-09-26T23:55:49.866Z,99999.00
2022-09-26T23:58:16.368Z,99998.00
